sensor_id;sensor_type;location;lat;lon;timestamp;P1;durP1;ratioP1;P2;durP2;ratioP2
26750;SDS011;14345;48.272;25.926;2022-09-24T00:01:13;2.53;;;2.20;;
26750;SDS011;14345;48.272;25.926;2022-09-24T00:03:40;4.18;;;2.92;;
26750;SDS011;14345;48.272;25.926;2022-09-24T00:06:07;2.45;;;2.00;;
26750;SDS011;14345;48.272;25.926;2022-09-24T00:08:33;3.67;;;2.67;;
26750;SDS011;14345;48.272;25.926;2022-09-24T00:11:00;3.55;;;2.72;;
26750;SDS011;14345;48.272;25.926;2022-09-24T00:13:27;3.25;;;2.42;;
26750;SDS011;14345;48.272;25.926;2022-09-24T00:15:53;3.05;;;2.53;;
26750;SDS011;14345;48.272;25.926;2022-09-24T00:18:19;3.20;;;2.38;;
26750;SDS011;14345;48.272;25.926;2022-09-24T00:20:46;5.82;;;2.33;;
26750;SDS011;14345;48.272;25.926;2022-09-24T00:23:12;2.97;;;2.35;;
26750;SDS011;14345;48.272;25.926;2022-09-24T00:25:42;2.97;;;2.20;;
26750;SDS011;14345;48.272;25.926;2022-09-24T00:28:27;2.95;;;2.25;;
26750;SDS011;14345;48.272;25.926;2022-09-24T00:30:53;3.05;;;2.38;;
26750;SDS011;14345;48.272;25.926;2022-09-24T00:33:24;2.63;;;2.15;;
26750;SDS011;14345;48.272;25.926;2022-09-24T00:35:50;3.10;;;2.70;;
26750;SDS011;14345;48.272;25.926;2022-09-24T00:38:17;2.83;;;2.28;;
26750;SDS011;14345;48.272;25.926;2022-09-24T00:40:43;3.58;;;2.38;;
26750;SDS011;14345;48.272;25.926;2022-09-24T00:46:01;2.55;;;2.25;;
26750;SDS011;14345;48.272;25.926;2022-09-24T00:48:30;4.22;;;2.28;;
26750;SDS011;14345;48.272;25.926;2022-09-24T00:50:58;3.00;;;1.70;;
26750;SDS011;14345;48.272;25.926;2022-09-24T00:53:24;3.58;;;2.40;;
26750;SDS011;14345;48.272;25.926;2022-09-24T00:55:55;3.15;;;2.30;;
26750;SDS011;14345;48.272;25.926;2022-09-24T00:58:22;2.72;;;1.88;;
26750;SDS011;14345;48.272;25.926;2022-09-24T01:00:48;3.47;;;2.47;;
26750;SDS011;14345;48.272;25.926;2022-09-24T01:03:18;2.80;;;1.98;;
26750;SDS011;14345;48.272;25.926;2022-09-24T01:05:44;3.58;;;1.90;;
26750;SDS011;14345;48.272;25.926;2022-09-24T01:08:14;3.17;;;1.90;;
26750;SDS011;14345;48.272;25.926;2022-09-24T01:15:50;3.42;;;2.00;;
26750;SDS011;14345;48.272;25.926;2022-09-24T01:31:30;2.00;;;1.80;;
26750;SDS011;14345;48.272;25.926;2022-09-24T01:33:58;2.67;;;1.90;;
26750;SDS011;14345;48.272;25.926;2022-09-24T01:36:26;1.98;;;1.70;;
26750;SDS011;14345;48.272;25.926;2022-09-24T01:38:53;2.25;;;1.80;;
26750;SDS011;14345;48.272;25.926;2022-09-24T01:41:20;2.38;;;1.98;;
26750;SDS011;14345;48.272;25.926;2022-09-24T01:43:47;2.92;;;1.85;;
26750;SDS011;14345;48.272;25.926;2022-09-24T01:46:14;1.85;;;1.70;;
26750;SDS011;14345;48.272;25.926;2022-09-24T01:48:43;3.33;;;2.20;;
26750;SDS011;14345;48.272;25.926;2022-09-24T01:54:04;2.97;;;2.03;;
26750;SDS011;14345;48.272;25.926;2022-09-24T01:58:58;2.92;;;2.20;;
26750;SDS011;14345;48.272;25.926;2022-09-24T02:01:31;2.30;;;2.08;;
26750;SDS011;14345;48.272;25.926;2022-09-24T02:04:00;3.60;;;2.35;;
26750;SDS011;14345;48.272;25.926;2022-09-24T02:06:37;2.80;;;1.95;;
26750;SDS011;14345;48.272;25.926;2022-09-24T02:09:05;3.53;;;2.40;;
26750;SDS011;14345;48.272;25.926;2022-09-24T02:11:32;2.97;;;2.40;;
26750;SDS011;14345;48.272;25.926;2022-09-24T02:16:28;3.75;;;2.42;;
26750;SDS011;14345;48.272;25.926;2022-09-24T02:18:55;3.17;;;2.10;;
26750;SDS011;14345;48.272;25.926;2022-09-24T02:21:23;2.75;;;2.20;;
26750;SDS011;14345;48.272;25.926;2022-09-24T02:23:51;3.40;;;2.20;;
26750;SDS011;14345;48.272;25.926;2022-09-24T02:26:19;2.28;;;1.90;;
26750;SDS011;14345;48.272;25.926;2022-09-24T02:28:45;3.30;;;2.03;;
26750;SDS011;14345;48.272;25.926;2022-09-24T02:31:16;3.50;;;2.35;;
26750;SDS011;14345;48.272;25.926;2022-09-24T02:33:44;3.17;;;2.28;;
26750;SDS011;14345;48.272;25.926;2022-09-24T02:36:29;3.15;;;2.10;;
26750;SDS011;14345;48.272;25.926;2022-09-24T02:38:57;2.80;;;2.38;;
26750;SDS011;14345;48.272;25.926;2022-09-24T02:41:23;2.55;;;2.05;;
26750;SDS011;14345;48.272;25.926;2022-09-24T02:43:50;2.55;;;2.05;;
26750;SDS011;14345;48.272;25.926;2022-09-24T02:46:16;2.47;;;1.98;;
26750;SDS011;14345;48.272;25.926;2022-09-24T02:48:43;5.95;;;2.90;;
26750;SDS011;14345;48.272;25.926;2022-09-24T02:51:09;6.95;;;2.70;;
26750;SDS011;14345;48.272;25.926;2022-09-24T02:53:35;3.95;;;2.40;;
26750;SDS011;14345;48.272;25.926;2022-09-24T02:56:01;3.20;;;2.38;;
26750;SDS011;14345;48.272;25.926;2022-09-24T02:58:27;4.95;;;2.35;;
26750;SDS011;14345;48.272;25.926;2022-09-24T03:00:54;2.85;;;2.28;;
26750;SDS011;14345;48.272;25.926;2022-09-24T03:03:20;4.13;;;2.70;;
26750;SDS011;14345;48.272;25.926;2022-09-24T03:05:47;3.45;;;2.42;;
26750;SDS011;14345;48.272;25.926;2022-09-24T03:08:13;2.40;;;2.10;;
26750;SDS011;14345;48.272;25.926;2022-09-24T03:10:39;3.25;;;2.40;;
26750;SDS011;14345;48.272;25.926;2022-09-24T03:13:05;2.78;;;2.25;;
26750;SDS011;14345;48.272;25.926;2022-09-24T03:15:31;3.15;;;2.15;;
26750;SDS011;14345;48.272;25.926;2022-09-24T03:17:57;3.05;;;2.40;;
26750;SDS011;14345;48.272;25.926;2022-09-24T03:20:23;2.53;;;2.00;;
26750;SDS011;14345;48.272;25.926;2022-09-24T03:22:49;2.85;;;2.13;;
26750;SDS011;14345;48.272;25.926;2022-09-24T03:25:16;2.60;;;2.15;;
26750;SDS011;14345;48.272;25.926;2022-09-24T03:27:42;2.67;;;2.03;;
26750;SDS011;14345;48.272;25.926;2022-09-24T03:30:08;2.35;;;2.10;;
26750;SDS011;14345;48.272;25.926;2022-09-24T03:32:53;2.30;;;1.83;;
26750;SDS011;14345;48.272;25.926;2022-09-24T03:35:19;2.63;;;2.00;;
26750;SDS011;14345;48.272;25.926;2022-09-24T03:37:45;2.45;;;2.00;;
26750;SDS011;14345;48.272;25.926;2022-09-24T03:40:11;2.22;;;1.90;;
26750;SDS011;14345;48.272;25.926;2022-09-24T03:42:37;2.70;;;2.35;;
26750;SDS011;14345;48.272;25.926;2022-09-24T03:45:04;2.97;;;2.40;;
26750;SDS011;14345;48.272;25.926;2022-09-24T03:47:30;3.70;;;2.60;;
26750;SDS011;14345;48.272;25.926;2022-09-24T03:49:56;3.35;;;2.03;;
26750;SDS011;14345;48.272;25.926;2022-09-24T03:52:23;2.33;;;2.03;;
26750;SDS011;14345;48.272;25.926;2022-09-24T03:54:49;3.60;;;2.53;;
26750;SDS011;14345;48.272;25.926;2022-09-24T03:57:15;4.10;;;2.75;;
26750;SDS011;14345;48.272;25.926;2022-09-24T03:59:41;2.63;;;2.42;;
26750;SDS011;14345;48.272;25.926;2022-09-24T04:02:08;3.75;;;2.53;;
26750;SDS011;14345;48.272;25.926;2022-09-24T04:04:34;2.67;;;2.25;;
26750;SDS011;14345;48.272;25.926;2022-09-24T04:07:00;3.97;;;2.95;;
26750;SDS011;14345;48.272;25.926;2022-09-24T04:09:26;3.53;;;2.85;;
26750;SDS011;14345;48.272;25.926;2022-09-24T04:11:52;3.50;;;2.88;;
26750;SDS011;14345;48.272;25.926;2022-09-24T04:14:18;3.10;;;2.80;;
26750;SDS011;14345;48.272;25.926;2022-09-24T04:16:45;3.72;;;2.95;;
26750;SDS011;14345;48.272;25.926;2022-09-24T04:19:11;4.30;;;2.80;;
26750;SDS011;14345;48.272;25.926;2022-09-24T04:21:40;3.83;;;3.22;;
26750;SDS011;14345;48.272;25.926;2022-09-24T04:24:06;3.70;;;2.92;;
26750;SDS011;14345;48.272;25.926;2022-09-24T04:26:32;4.80;;;3.47;;
26750;SDS011;14345;48.272;25.926;2022-09-24T04:28:58;4.20;;;3.10;;
26750;SDS011;14345;48.272;25.926;2022-09-24T04:31:24;4.65;;;3.28;;
26750;SDS011;14345;48.272;25.926;2022-09-24T04:33:51;5.28;;;3.42;;
26750;SDS011;14345;48.272;25.926;2022-09-24T04:36:17;3.45;;;3.00;;
26750;SDS011;14345;48.272;25.926;2022-09-24T04:38:44;4.07;;;3.08;;
26750;SDS011;14345;48.272;25.926;2022-09-24T04:41:10;4.05;;;2.85;;
26750;SDS011;14345;48.272;25.926;2022-09-24T04:43:37;4.90;;;3.28;;
26750;SDS011;14345;48.272;25.926;2022-09-24T04:46:05;4.10;;;3.15;;
26750;SDS011;14345;48.272;25.926;2022-09-24T04:48:32;4.82;;;3.20;;
26750;SDS011;14345;48.272;25.926;2022-09-24T04:51:02;6.80;;;2.95;;
26750;SDS011;14345;48.272;25.926;2022-09-24T04:53:30;3.58;;;2.67;;
26750;SDS011;14345;48.272;25.926;2022-09-24T04:55:56;5.25;;;3.25;;
26750;SDS011;14345;48.272;25.926;2022-09-24T04:58:24;4.00;;;3.05;;
26750;SDS011;14345;48.272;25.926;2022-09-24T05:00:50;3.65;;;2.97;;
26750;SDS011;14345;48.272;25.926;2022-09-24T05:03:17;3.05;;;2.75;;
26750;SDS011;14345;48.272;25.926;2022-09-24T05:05:46;6.32;;;3.10;;
26750;SDS011;14345;48.272;25.926;2022-09-24T05:08:14;3.20;;;2.72;;
26750;SDS011;14345;48.272;25.926;2022-09-24T05:10:41;4.55;;;3.35;;
26750;SDS011;14345;48.272;25.926;2022-09-24T05:13:07;4.38;;;3.40;;
26750;SDS011;14345;48.272;25.926;2022-09-24T05:15:34;4.65;;;3.60;;
26750;SDS011;14345;48.272;25.926;2022-09-24T05:18:00;4.00;;;3.08;;
26750;SDS011;14345;48.272;25.926;2022-09-24T05:20:26;4.22;;;3.38;;
26750;SDS011;14345;48.272;25.926;2022-09-24T05:22:52;4.05;;;3.38;;
26750;SDS011;14345;48.272;25.926;2022-09-24T05:25:19;3.67;;;3.20;;
26750;SDS011;14345;48.272;25.926;2022-09-24T05:27:47;3.60;;;3.00;;
26750;SDS011;14345;48.272;25.926;2022-09-24T05:30:14;4.72;;;3.53;;
26750;SDS011;14345;48.272;25.926;2022-09-24T05:32:40;4.68;;;3.70;;
26750;SDS011;14345;48.272;25.926;2022-09-24T05:35:06;4.18;;;3.05;;
26750;SDS011;14345;48.272;25.926;2022-09-24T05:37:36;4.72;;;3.63;;
26750;SDS011;14345;48.272;25.926;2022-09-24T05:40:03;6.25;;;4.60;;
26750;SDS011;14345;48.272;25.926;2022-09-24T05:42:49;5.53;;;3.70;;
26750;SDS011;14345;48.272;25.926;2022-09-24T05:45:15;4.60;;;3.75;;
26750;SDS011;14345;48.272;25.926;2022-09-24T05:47:45;5.47;;;3.55;;
26750;SDS011;14345;48.272;25.926;2022-09-24T05:50:12;5.47;;;3.05;;
26750;SDS011;14345;48.272;25.926;2022-09-24T05:52:41;5.40;;;3.00;;
26750;SDS011;14345;48.272;25.926;2022-09-24T05:55:07;5.03;;;2.60;;
26750;SDS011;14345;48.272;25.926;2022-09-24T05:57:34;3.63;;;3.00;;
26750;SDS011;14345;48.272;25.926;2022-09-24T06:00:00;3.35;;;2.30;;
26750;SDS011;14345;48.272;25.926;2022-09-24T06:02:26;3.22;;;2.30;;
26750;SDS011;14345;48.272;25.926;2022-09-24T06:04:52;2.00;;;1.80;;
26750;SDS011;14345;48.272;25.926;2022-09-24T06:07:19;2.50;;;1.88;;
26750;SDS011;14345;48.272;25.926;2022-09-24T06:09:45;5.93;;;3.80;;
26750;SDS011;14345;48.272;25.926;2022-09-24T06:12:12;4.78;;;2.30;;
26750;SDS011;14345;48.272;25.926;2022-09-24T06:14:38;3.50;;;2.33;;
26750;SDS011;14345;48.272;25.926;2022-09-24T06:17:08;3.42;;;2.38;;
26750;SDS011;14345;48.272;25.926;2022-09-24T06:19:34;2.63;;;2.20;;
26750;SDS011;14345;48.272;25.926;2022-09-24T06:22:00;2.28;;;2.08;;
26750;SDS011;14345;48.272;25.926;2022-09-24T06:24:26;3.42;;;1.92;;
26750;SDS011;14345;48.272;25.926;2022-09-24T06:26:52;2.65;;;2.20;;
26750;SDS011;14345;48.272;25.926;2022-09-24T06:29:18;2.72;;;2.05;;
26750;SDS011;14345;48.272;25.926;2022-09-24T06:31:44;3.53;;;2.40;;
26750;SDS011;14345;48.272;25.926;2022-09-24T06:34:11;2.80;;;2.20;;
26750;SDS011;14345;48.272;25.926;2022-09-24T06:36:37;3.33;;;2.20;;
26750;SDS011;14345;48.272;25.926;2022-09-24T06:39:04;3.85;;;2.35;;
26750;SDS011;14345;48.272;25.926;2022-09-24T06:41:30;2.50;;;2.10;;
26750;SDS011;14345;48.272;25.926;2022-09-24T06:43:56;3.00;;;2.33;;
26750;SDS011;14345;48.272;25.926;2022-09-24T06:46:22;3.33;;;2.20;;
26750;SDS011;14345;48.272;25.926;2022-09-24T06:48:49;3.28;;;2.67;;
26750;SDS011;14345;48.272;25.926;2022-09-24T06:51:15;2.55;;;2.22;;
26750;SDS011;14345;48.272;25.926;2022-09-24T06:53:41;4.30;;;2.40;;
26750;SDS011;14345;48.272;25.926;2022-09-24T06:56:07;3.78;;;2.67;;
26750;SDS011;14345;48.272;25.926;2022-09-24T06:58:34;3.72;;;2.50;;
26750;SDS011;14345;48.272;25.926;2022-09-24T07:01:00;3.45;;;2.20;;
26750;SDS011;14345;48.272;25.926;2022-09-24T07:03:27;2.10;;;1.83;;
26750;SDS011;14345;48.272;25.926;2022-09-24T07:05:54;3.28;;;2.30;;
26750;SDS011;14345;48.272;25.926;2022-09-24T07:08:20;8.07;;;2.45;;
26750;SDS011;14345;48.272;25.926;2022-09-24T07:10:47;3.78;;;2.30;;
26750;SDS011;14345;48.272;25.926;2022-09-24T07:13:14;3.20;;;2.47;;
26750;SDS011;14345;48.272;25.926;2022-09-24T07:15:41;2.58;;;2.08;;
26750;SDS011;14345;48.272;25.926;2022-09-24T07:18:08;5.60;;;2.40;;
26750;SDS011;14345;48.272;25.926;2022-09-24T07:20:34;2.45;;;1.85;;
26750;SDS011;14345;48.272;25.926;2022-09-24T07:23:08;2.58;;;1.90;;
26750;SDS011;14345;48.272;25.926;2022-09-24T07:25:34;2.75;;;2.28;;
26750;SDS011;14345;48.272;25.926;2022-09-24T07:28:04;4.60;;;2.03;;
26750;SDS011;14345;48.272;25.926;2022-09-24T07:30:31;4.78;;;2.83;;
26750;SDS011;14345;48.272;25.926;2022-09-24T07:32:58;3.47;;;2.67;;
26750;SDS011;14345;48.272;25.926;2022-09-24T07:35:24;5.20;;;3.20;;
26750;SDS011;14345;48.272;25.926;2022-09-24T07:37:57;4.90;;;2.90;;
26750;SDS011;14345;48.272;25.926;2022-09-24T07:40:24;5.85;;;3.00;;
26750;SDS011;14345;48.272;25.926;2022-09-24T07:42:50;3.45;;;2.58;;
26750;SDS011;14345;48.272;25.926;2022-09-24T07:45:18;6.57;;;3.90;;
26750;SDS011;14345;48.272;25.926;2022-09-24T07:47:44;7.03;;;3.42;;
26750;SDS011;14345;48.272;25.926;2022-09-24T07:50:10;4.90;;;3.05;;
26750;SDS011;14345;48.272;25.926;2022-09-24T07:52:37;3.50;;;2.38;;
26750;SDS011;14345;48.272;25.926;2022-09-24T07:55:03;3.45;;;2.65;;
26750;SDS011;14345;48.272;25.926;2022-09-24T07:57:29;3.80;;;2.60;;
26750;SDS011;14345;48.272;25.926;2022-09-24T07:59:56;4.28;;;3.10;;
26750;SDS011;14345;48.272;25.926;2022-09-24T08:02:22;3.03;;;2.60;;
26750;SDS011;14345;48.272;25.926;2022-09-24T08:04:49;5.30;;;2.30;;
26750;SDS011;14345;48.272;25.926;2022-09-24T08:07:15;3.28;;;2.33;;
26750;SDS011;14345;48.272;25.926;2022-09-24T08:09:41;2.35;;;2.00;;
26750;SDS011;14345;48.272;25.926;2022-09-24T08:12:07;3.42;;;2.60;;
26750;SDS011;14345;48.272;25.926;2022-09-24T08:14:35;3.50;;;2.42;;
26750;SDS011;14345;48.272;25.926;2022-09-24T08:17:01;3.28;;;2.30;;
26750;SDS011;14345;48.272;25.926;2022-09-24T08:19:27;2.75;;;1.95;;
26750;SDS011;14345;48.272;25.926;2022-09-24T08:21:55;3.17;;;2.25;;
26750;SDS011;14345;48.272;25.926;2022-09-24T08:24:21;4.03;;;1.90;;
26750;SDS011;14345;48.272;25.926;2022-09-24T08:26:47;6.78;;;2.33;;
26750;SDS011;14345;48.272;25.926;2022-09-24T08:29:13;4.03;;;2.10;;
26750;SDS011;14345;48.272;25.926;2022-09-24T08:31:39;2.10;;;1.58;;
26750;SDS011;14345;48.272;25.926;2022-09-24T08:34:06;3.42;;;2.22;;
26750;SDS011;14345;48.272;25.926;2022-09-24T08:36:32;4.07;;;2.13;;
26750;SDS011;14345;48.272;25.926;2022-09-24T08:38:58;2.72;;;2.08;;
26750;SDS011;14345;48.272;25.926;2022-09-24T08:41:38;2.35;;;2.00;;
26750;SDS011;14345;48.272;25.926;2022-09-24T08:44:10;2.90;;;2.10;;
26750;SDS011;14345;48.272;25.926;2022-09-24T08:46:39;3.10;;;1.95;;
26750;SDS011;14345;48.272;25.926;2022-09-24T08:49:29;2.55;;;1.85;;
26750;SDS011;14345;48.272;25.926;2022-09-24T08:54:22;2.42;;;1.95;;
26750;SDS011;14345;48.272;25.926;2022-09-24T08:56:49;2.38;;;1.98;;
26750;SDS011;14345;48.272;25.926;2022-09-24T08:59:27;5.20;;;2.40;;
26750;SDS011;14345;48.272;25.926;2022-09-24T09:04:32;2.67;;;2.17;;
26750;SDS011;14345;48.272;25.926;2022-09-24T09:07:19;6.53;;;2.58;;
26750;SDS011;14345;48.272;25.926;2022-09-24T09:12:14;16.98;;;11.82;;
26750;SDS011;14345;48.272;25.926;2022-09-24T09:14:55;3.20;;;2.60;;
26750;SDS011;14345;48.272;25.926;2022-09-24T09:19:52;4.20;;;2.20;;
26750;SDS011;14345;48.272;25.926;2022-09-24T09:22:20;2.95;;;1.95;;
26750;SDS011;14345;48.272;25.926;2022-09-24T09:24:49;2.05;;;1.80;;
26750;SDS011;14345;48.272;25.926;2022-09-24T09:27:16;4.38;;;2.20;;
26750;SDS011;14345;48.272;25.926;2022-09-24T09:29:50;4.18;;;1.83;;
26750;SDS011;14345;48.272;25.926;2022-09-24T09:42:47;3.90;;;2.08;;
26750;SDS011;14345;48.272;25.926;2022-09-24T09:47:47;3.25;;;2.10;;
26750;SDS011;14345;48.272;25.926;2022-09-24T09:52:44;3.22;;;2.10;;
26750;SDS011;14345;48.272;25.926;2022-09-24T09:55:25;2.58;;;1.95;;
26750;SDS011;14345;48.272;25.926;2022-09-24T09:57:51;2.25;;;1.85;;
26750;SDS011;14345;48.272;25.926;2022-09-24T10:00:32;3.03;;;1.88;;
26750;SDS011;14345;48.272;25.926;2022-09-24T10:02:58;2.47;;;1.55;;
26750;SDS011;14345;48.272;25.926;2022-09-24T10:05:25;2.60;;;1.75;;
26750;SDS011;14345;48.272;25.926;2022-09-24T10:07:55;2.10;;;1.70;;
26750;SDS011;14345;48.272;25.926;2022-09-24T10:10:22;3.22;;;1.80;;
26750;SDS011;14345;48.272;25.926;2022-09-24T10:13:05;2.10;;;1.63;;
26750;SDS011;14345;48.272;25.926;2022-09-24T10:15:38;2.53;;;1.80;;
26750;SDS011;14345;48.272;25.926;2022-09-24T10:18:05;2.17;;;1.65;;
26750;SDS011;14345;48.272;25.926;2022-09-24T10:20:31;1.85;;;1.60;;
26750;SDS011;14345;48.272;25.926;2022-09-24T10:23:02;3.08;;;2.03;;
26750;SDS011;14345;48.272;25.926;2022-09-24T10:25:31;2.75;;;1.98;;
26750;SDS011;14345;48.272;25.926;2022-09-24T10:27:58;2.35;;;1.80;;
26750;SDS011;14345;48.272;25.926;2022-09-24T10:31:03;3.72;;;1.98;;
26750;SDS011;14345;48.272;25.926;2022-09-24T10:33:39;3.83;;;1.70;;
26750;SDS011;14345;48.272;25.926;2022-09-24T10:36:07;2.15;;;1.85;;
26750;SDS011;14345;48.272;25.926;2022-09-24T10:38:37;3.17;;;2.10;;
26750;SDS011;14345;48.272;25.926;2022-09-24T10:41:25;2.15;;;1.92;;
26750;SDS011;14345;48.272;25.926;2022-09-24T10:43:51;4.97;;;2.55;;
26750;SDS011;14345;48.272;25.926;2022-09-24T10:51:44;2.13;;;1.90;;
26750;SDS011;14345;48.272;25.926;2022-09-24T10:54:17;3.08;;;2.08;;
26750;SDS011;14345;48.272;25.926;2022-09-24T10:56:48;2.22;;;2.03;;
26750;SDS011;14345;48.272;25.926;2022-09-24T11:09:48;4.57;;;2.35;;
26750;SDS011;14345;48.272;25.926;2022-09-24T11:17:29;2.58;;;2.10;;
26750;SDS011;14345;48.272;25.926;2022-09-24T11:22:36;2.75;;;2.10;;
26750;SDS011;14345;48.272;25.926;2022-09-24T11:27:59;2.13;;;1.92;;
26750;SDS011;14345;48.272;25.926;2022-09-24T11:30:37;2.08;;;1.73;;
26750;SDS011;14345;48.272;25.926;2022-09-24T11:33:21;3.22;;;2.20;;
26750;SDS011;14345;48.272;25.926;2022-09-24T11:38:30;4.20;;;2.20;;
26750;SDS011;14345;48.272;25.926;2022-09-24T11:46:19;3.50;;;2.35;;
26750;SDS011;14345;48.272;25.926;2022-09-24T11:56:46;3.45;;;2.33;;
26750;SDS011;14345;48.272;25.926;2022-09-24T12:01:42;3.80;;;2.10;;
26750;SDS011;14345;48.272;25.926;2022-09-24T12:04:16;2.83;;;1.55;;
26750;SDS011;14345;48.272;25.926;2022-09-24T12:16:56;1.63;;;1.38;;
26750;SDS011;14345;48.272;25.926;2022-09-24T12:19:26;2.72;;;1.40;;
26750;SDS011;14345;48.272;25.926;2022-09-24T12:21:53;3.05;;;1.55;;
26750;SDS011;14345;48.272;25.926;2022-09-24T12:27:11;2.83;;;1.80;;
26750;SDS011;14345;48.272;25.926;2022-09-24T12:37:46;3.67;;;1.75;;
26750;SDS011;14345;48.272;25.926;2022-09-24T12:43:00;2.78;;;1.98;;
26750;SDS011;14345;48.272;25.926;2022-09-24T12:45:27;2.05;;;1.70;;
26750;SDS011;14345;48.272;25.926;2022-09-24T12:47:57;1.63;;;1.45;;
26750;SDS011;14345;48.272;25.926;2022-09-24T12:50:30;3.55;;;1.98;;
26750;SDS011;14345;48.272;25.926;2022-09-24T12:52:58;1.77;;;1.55;;
26750;SDS011;14345;48.272;25.926;2022-09-24T12:55:25;2.60;;;1.25;;
26750;SDS011;14345;48.272;25.926;2022-09-24T13:03:03;2.00;;;1.10;;
26750;SDS011;14345;48.272;25.926;2022-09-24T13:10:37;2.22;;;1.35;;
26750;SDS011;14345;48.272;25.926;2022-09-24T13:13:14;1.58;;;1.30;;
26750;SDS011;14345;48.272;25.926;2022-09-24T13:15:45;4.25;;;1.92;;
26750;SDS011;14345;48.272;25.926;2022-09-24T13:18:23;1.75;;;1.30;;
26750;SDS011;14345;48.272;25.926;2022-09-24T13:21:00;1.75;;;1.60;;
26750;SDS011;14345;48.272;25.926;2022-09-24T13:28:28;1.90;;;1.45;;
26750;SDS011;14345;48.272;25.926;2022-09-24T13:33:41;1.90;;;1.63;;
26750;SDS011;14345;48.272;25.926;2022-09-24T13:36:18;2.45;;;1.73;;
26750;SDS011;14345;48.272;25.926;2022-09-24T13:41:25;2.38;;;1.92;;
26750;SDS011;14345;48.272;25.926;2022-09-24T13:43:58;3.60;;;2.00;;
26750;SDS011;14345;48.272;25.926;2022-09-24T13:46:25;2.40;;;2.10;;
26750;SDS011;14345;48.272;25.926;2022-09-24T13:48:56;2.30;;;1.70;;
26750;SDS011;14345;48.272;25.926;2022-09-24T13:51:28;1.92;;;1.70;;
26750;SDS011;14345;48.272;25.926;2022-09-24T13:54:06;1.52;;;1.42;;
26750;SDS011;14345;48.272;25.926;2022-09-24T13:56:37;1.98;;;1.50;;
26750;SDS011;14345;48.272;25.926;2022-09-24T13:59:04;2.92;;;2.20;;
26750;SDS011;14345;48.272;25.926;2022-09-24T14:01:34;2.97;;;2.53;;
26750;SDS011;14345;48.272;25.926;2022-09-24T14:04:02;5.75;;;2.30;;
26750;SDS011;14345;48.272;25.926;2022-09-24T14:06:36;2.05;;;1.65;;
26750;SDS011;14345;48.272;25.926;2022-09-24T14:09:13;3.05;;;1.88;;
26750;SDS011;14345;48.272;25.926;2022-09-24T14:11:46;1.92;;;1.73;;
26750;SDS011;14345;48.272;25.926;2022-09-24T14:14:15;3.15;;;1.92;;
26750;SDS011;14345;48.272;25.926;2022-09-24T14:16:42;3.42;;;2.30;;
26750;SDS011;14345;48.272;25.926;2022-09-24T14:19:12;3.63;;;1.92;;
26750;SDS011;14345;48.272;25.926;2022-09-24T14:21:46;1.90;;;1.70;;
26750;SDS011;14345;48.272;25.926;2022-09-24T14:24:14;2.05;;;1.80;;
26750;SDS011;14345;48.272;25.926;2022-09-24T14:27:25;2.65;;;1.90;;
26750;SDS011;14345;48.272;25.926;2022-09-24T14:30:15;2.72;;;1.73;;
26750;SDS011;14345;48.272;25.926;2022-09-24T14:32:31;2.28;;;1.90;;
26750;SDS011;14345;48.272;25.926;2022-09-24T14:34:59;2.00;;;1.80;;
26750;SDS011;14345;48.272;25.926;2022-09-24T14:39:56;2.70;;;2.15;;
26750;SDS011;14345;48.272;25.926;2022-09-24T14:42:24;2.42;;;2.00;;
26750;SDS011;14345;48.272;25.926;2022-09-24T14:44:52;3.58;;;2.33;;
26750;SDS011;14345;48.272;25.926;2022-09-24T14:47:27;3.30;;;2.35;;
26750;SDS011;14345;48.272;25.926;2022-09-24T14:49:53;4.10;;;2.25;;
26750;SDS011;14345;48.272;25.926;2022-09-24T14:52:30;3.75;;;2.08;;
26750;SDS011;14345;48.272;25.926;2022-09-24T14:55:00;3.10;;;2.03;;
26750;SDS011;14345;48.272;25.926;2022-09-24T14:57:26;2.78;;;2.20;;
26750;SDS011;14345;48.272;25.926;2022-09-24T14:59:52;3.45;;;2.15;;
26750;SDS011;14345;48.272;25.926;2022-09-24T15:04:54;3.80;;;2.70;;
26750;SDS011;14345;48.272;25.926;2022-09-24T15:07:21;2.75;;;2.40;;
26750;SDS011;14345;48.272;25.926;2022-09-24T15:09:49;4.68;;;2.10;;
26750;SDS011;14345;48.272;25.926;2022-09-24T15:12:18;2.78;;;1.90;;
26750;SDS011;14345;48.272;25.926;2022-09-24T15:14:58;2.83;;;2.03;;
26750;SDS011;14345;48.272;25.926;2022-09-24T15:17:28;4.78;;;2.33;;
26750;SDS011;14345;48.272;25.926;2022-09-24T15:19:54;2.78;;;2.30;;
26750;SDS011;14345;48.272;25.926;2022-09-24T15:22:22;3.30;;;2.40;;
26750;SDS011;14345;48.272;25.926;2022-09-24T15:24:50;2.95;;;2.40;;
26750;SDS011;14345;48.272;25.926;2022-09-24T15:29:51;7.95;;;3.13;;
26750;SDS011;14345;48.272;25.926;2022-09-24T15:32:23;4.72;;;3.72;;
26750;SDS011;14345;48.272;25.926;2022-09-24T15:34:50;5.13;;;3.53;;
26750;SDS011;14345;48.272;25.926;2022-09-24T15:37:18;7.05;;;4.55;;
26750;SDS011;14345;48.272;25.926;2022-09-24T15:39:45;6.30;;;4.88;;
26750;SDS011;14345;48.272;25.926;2022-09-24T15:42:18;8.93;;;5.10;;
26750;SDS011;14345;48.272;25.926;2022-09-24T15:44:45;7.20;;;4.70;;
26750;SDS011;14345;48.272;25.926;2022-09-24T15:47:12;9.43;;;5.00;;
26750;SDS011;14345;48.272;25.926;2022-09-24T15:49:38;5.82;;;4.82;;
26750;SDS011;14345;48.272;25.926;2022-09-24T15:54:36;7.05;;;5.03;;
26750;SDS011;14345;48.272;25.926;2022-09-24T15:57:02;7.75;;;4.72;;
26750;SDS011;14345;48.272;25.926;2022-09-24T15:59:28;7.30;;;4.07;;
26750;SDS011;14345;48.272;25.926;2022-09-24T16:01:56;4.97;;;3.80;;
26750;SDS011;14345;48.272;25.926;2022-09-24T16:04:23;6.80;;;3.72;;
26750;SDS011;14345;48.272;25.926;2022-09-24T16:06:49;6.30;;;4.30;;
26750;SDS011;14345;48.272;25.926;2022-09-24T16:09:15;7.65;;;3.75;;
26750;SDS011;14345;48.272;25.926;2022-09-24T16:11:41;7.25;;;4.05;;
26750;SDS011;14345;48.272;25.926;2022-09-24T16:14:08;5.22;;;4.03;;
26750;SDS011;14345;48.272;25.926;2022-09-24T16:16:34;9.02;;;5.50;;
26750;SDS011;14345;48.272;25.926;2022-09-24T16:19:00;9.52;;;5.10;;
26750;SDS011;14345;48.272;25.926;2022-09-24T16:21:26;5.82;;;3.90;;
26750;SDS011;14345;48.272;25.926;2022-09-24T16:23:52;6.43;;;4.50;;
26750;SDS011;14345;48.272;25.926;2022-09-24T16:26:18;8.27;;;5.30;;
26750;SDS011;14345;48.272;25.926;2022-09-24T16:28:45;6.78;;;4.85;;
26750;SDS011;14345;48.272;25.926;2022-09-24T16:31:13;6.53;;;3.97;;
26750;SDS011;14345;48.272;25.926;2022-09-24T16:33:39;6.47;;;4.05;;
26750;SDS011;14345;48.272;25.926;2022-09-24T16:36:06;10.45;;;6.15;;
26750;SDS011;14345;48.272;25.926;2022-09-24T16:38:33;10.95;;;5.50;;
26750;SDS011;14345;48.272;25.926;2022-09-24T16:40:59;7.55;;;5.22;;
26750;SDS011;14345;48.272;25.926;2022-09-24T16:43:25;11.25;;;6.47;;
26750;SDS011;14345;48.272;25.926;2022-09-24T16:45:51;17.00;;;8.95;;
26750;SDS011;14345;48.272;25.926;2022-09-24T16:48:17;14.55;;;6.90;;
26750;SDS011;14345;48.272;25.926;2022-09-24T16:50:43;11.15;;;6.65;;
26750;SDS011;14345;48.272;25.926;2022-09-24T16:53:09;12.30;;;7.30;;
26750;SDS011;14345;48.272;25.926;2022-09-24T16:55:35;8.85;;;5.70;;
26750;SDS011;14345;48.272;25.926;2022-09-24T16:58:01;10.10;;;6.55;;
26750;SDS011;14345;48.272;25.926;2022-09-24T17:00:27;9.20;;;6.38;;
26750;SDS011;14345;48.272;25.926;2022-09-24T17:02:53;14.00;;;7.93;;
26750;SDS011;14345;48.272;25.926;2022-09-24T17:05:19;11.15;;;7.35;;
26750;SDS011;14345;48.272;25.926;2022-09-24T17:07:45;12.63;;;8.95;;
26750;SDS011;14345;48.272;25.926;2022-09-24T17:10:11;18.83;;;9.98;;
26750;SDS011;14345;48.272;25.926;2022-09-24T17:12:41;16.95;;;9.60;;
26750;SDS011;14345;48.272;25.926;2022-09-24T17:15:08;15.20;;;10.40;;